sensor_id;sensor_type;location;lat;lon;timestamp;temperature;humidity
22850;DHT22;11591;44.792;10.358;2023-02-23T00:00:30;11.70;99.90
22850;DHT22;11591;44.792;10.358;2023-02-23T00:02:58;11.70;99.90
22850;DHT22;11591;44.792;10.358;2023-02-23T00:05:27;11.70;99.90
22850;DHT22;11591;44.792;10.358;2023-02-23T00:07:53;11.70;99.90
22850;DHT22;11591;44.792;10.358;2023-02-23T00:10:19;11.60;99.90
22850;DHT22;11591;44.792;10.358;2023-02-23T00:12:47;11.60;99.90
22850;DHT22;11591;44.792;10.358;2023-02-23T00:15:15;11.60;99.90
22850;DHT22;11591;44.792;10.358;2023-02-23T00:17:42;11.60;99.90
22850;DHT22;11591;44.792;10.358;2023-02-23T00:20:10;11.60;99.90
22850;DHT22;11591;44.792;10.358;2023-02-23T00:22:39;11.60;99.90
22850;DHT22;11591;44.792;10.358;2023-02-23T00:25:10;11.60;99.90
22850;DHT22;11591;44.792;10.358;2023-02-23T00:27:39;11.60;99.90
22850;DHT22;11591;44.792;10.358;2023-02-23T00:30:11;11.60;99.90
22850;DHT22;11591;44.792;10.358;2023-02-23T00:32:38;11.60;99.90
22850;DHT22;11591;44.792;10.358;2023-02-23T00:35:04;11.60;99.90
22850;DHT22;11591;44.792;10.358;2023-02-23T00:37:36;11.60;99.90
22850;DHT22;11591;44.792;10.358;2023-02-23T00:40:03;11.60;99.90
22850;DHT22;11591;44.792;10.358;2023-02-23T00:42:37;11.50;99.90
22850;DHT22;11591;44.792;10.358;2023-02-23T00:45:03;11.50;99.90
22850;DHT22;11591;44.792;10.358;2023-02-23T00:47:33;11.50;99.90
22850;DHT22;11591;44.792;10.358;2023-02-23T00:50:00;11.50;99.90
22850;DHT22;11591;44.792;10.358;2023-02-23T00:52:26;11.50;99.90
22850;DHT22;11591;44.792;10.358;2023-02-23T00:54:53;11.60;99.90
22850;DHT22;11591;44.792;10.358;2023-02-23T00:57:21;11.50;99.90
22850;DHT22;11591;44.792;10.358;2023-02-23T00:59:48;11.60;99.90
22850;DHT22;11591;44.792;10.358;2023-02-23T01:02:14;11.50;99.90
22850;DHT22;11591;44.792;10.358;2023-02-23T01:04:40;11.50;99.90
22850;DHT22;11591;44.792;10.358;2023-02-23T01:07:06;11.50;99.90
22850;DHT22;11591;44.792;10.358;2023-02-23T01:09:32;11.50;99.90
22850;DHT22;11591;44.792;10.358;2023-02-23T01:11:57;11.50;99.90
22850;DHT22;11591;44.792;10.358;2023-02-23T01:14:27;11.50;99.90
22850;DHT22;11591;44.792;10.358;2023-02-23T01:16:53;11.50;99.90
22850;DHT22;11591;44.792;10.358;2023-02-23T01:19:19;11.50;99.90
22850;DHT22;11591;44.792;10.358;2023-02-23T01:21:47;11.60;99.90
22850;DHT22;11591;44.792;10.358;2023-02-23T01:24:13;11.60;99.90
22850;DHT22;11591;44.792;10.358;2023-02-23T01:26:43;11.60;99.90
22850;DHT22;11591;44.792;10.358;2023-02-23T01:29:13;11.60;99.90
22850;DHT22;11591;44.792;10.358;2023-02-23T01:31:41;11.60;99.90
22850;DHT22;11591;44.792;10.358;2023-02-23T01:34:09;11.60;99.90
22850;DHT22;11591;44.792;10.358;2023-02-23T01:36:38;11.50;99.90
22850;DHT22;11591;44.792;10.358;2023-02-23T01:39:07;11.50;99.90
22850;DHT22;11591;44.792;10.358;2023-02-23T01:41:35;11.50;99.90
22850;DHT22;11591;44.792;10.358;2023-02-23T01:44:05;11.50;99.90
22850;DHT22;11591;44.792;10.358;2023-02-23T01:46:36;11.50;99.90
22850;DHT22;11591;44.792;10.358;2023-02-23T01:49:27;11.50;99.90
22850;DHT22;11591;44.792;10.358;2023-02-23T01:52:02;11.50;99.90
22850;DHT22;11591;44.792;10.358;2023-02-23T01:54:43;11.50;99.90
22850;DHT22;11591;44.792;10.358;2023-02-23T01:57:14;11.50;99.90
22850;DHT22;11591;44.792;10.358;2023-02-23T01:59:43;11.60;99.90
22850;DHT22;11591;44.792;10.358;2023-02-23T02:02:10;11.50;99.90
22850;DHT22;11591;44.792;10.358;2023-02-23T02:04:39;11.50;99.90
22850;DHT22;11591;44.792;10.358;2023-02-23T02:07:13;11.60;99.90
22850;DHT22;11591;44.792;10.358;2023-02-23T02:09:41;11.60;99.90
22850;DHT22;11591;44.792;10.358;2023-02-23T02:12:27;11.60;99.90
22850;DHT22;11591;44.792;10.358;2023-02-23T02:14:54;11.60;99.90
22850;DHT22;11591;44.792;10.358;2023-02-23T02:17:39;11.60;99.90
22850;DHT22;11591;44.792;10.358;2023-02-23T02:28:39;11.60;99.90
22850;DHT22;11591;44.792;10.358;2023-02-23T02:37:07;11.60;99.90
22850;DHT22;11591;44.792;10.358;2023-02-23T02:40:15;11.60;99.90
22850;DHT22;11591;44.792;10.358;2023-02-23T02:43:00;11.60;99.90
22850;DHT22;11591;44.792;10.358;2023-02-23T02:51:32;11.50;99.90
22850;DHT22;11591;44.792;10.358;2023-02-23T02:54:33;11.50;99.90
22850;DHT22;11591;44.792;10.358;2023-02-23T02:57:02;11.50;99.90
22850;DHT22;11591;44.792;10.358;2023-02-23T02:59:30;11.40;99.90
22850;DHT22;11591;44.792;10.358;2023-02-23T03:02:18;11.50;99.90
22850;DHT22;11591;44.792;10.358;2023-02-23T03:05:14;11.50;99.90
22850;DHT22;11591;44.792;10.358;2023-02-23T03:11:12;11.50;99.90
22850;DHT22;11591;44.792;10.358;2023-02-23T03:17:34;11.40;99.90
22850;DHT22;11591;44.792;10.358;2023-02-23T03:20:37;11.40;99.90
22850;DHT22;11591;44.792;10.358;2023-02-23T03:26:43;11.20;99.90
22850;DHT22;11591;44.792;10.358;2023-02-23T03:29:44;11.20;99.90
22850;DHT22;11591;44.792;10.358;2023-02-23T03:32:38;11.00;99.90
22850;DHT22;11591;44.792;10.358;2023-02-23T03:35:34;11.00;99.90
22850;DHT22;11591;44.792;10.358;2023-02-23T03:41:40;10.80;99.90
22850;DHT22;11591;44.792;10.358;2023-02-23T03:44:31;10.70;99.90
22850;DHT22;11591;44.792;10.358;2023-02-23T03:47:17;10.70;99.90
22850;DHT22;11591;44.792;10.358;2023-02-23T03:50:05;10.80;99.90
22850;DHT22;11591;44.792;10.358;2023-02-23T03:52:55;10.90;99.90
22850;DHT22;11591;44.792;10.358;2023-02-23T03:55:44;11.00;99.90
22850;DHT22;11591;44.792;10.358;2023-02-23T03:58:35;11.10;99.90
22850;DHT22;11591;44.792;10.358;2023-02-23T04:01:21;11.10;99.90
22850;DHT22;11591;44.792;10.358;2023-02-23T04:04:08;11.20;99.90
22850;DHT22;11591;44.792;10.358;2023-02-23T04:06:55;11.20;99.90
22850;DHT22;11591;44.792;10.358;2023-02-23T04:09:40;11.20;99.90
22850;DHT22;11591;44.792;10.358;2023-02-23T04:15:32;11.20;99.90
22850;DHT22;11591;44.792;10.358;2023-02-23T04:17:59;11.20;99.90
22850;DHT22;11591;44.792;10.358;2023-02-23T04:20:26;11.20;99.90
22850;DHT22;11591;44.792;10.358;2023-02-23T04:22:52;11.20;99.90
22850;DHT22;11591;44.792;10.358;2023-02-23T04:25:19;11.20;99.90
22850;DHT22;11591;44.792;10.358;2023-02-23T04:27:48;11.20;99.90
22850;DHT22;11591;44.792;10.358;2023-02-23T04:30:15;11.20;99.90
22850;DHT22;11591;44.792;10.358;2023-02-23T04:32:40;11.10;99.90
22850;DHT22;11591;44.792;10.358;2023-02-23T04:35:06;11.20;99.90
22850;DHT22;11591;44.792;10.358;2023-02-23T04:37:32;11.20;99.90
22850;DHT22;11591;44.792;10.358;2023-02-23T04:39:58;11.20;99.90
22850;DHT22;11591;44.792;10.358;2023-02-23T04:42:24;11.30;99.90
22850;DHT22;11591;44.792;10.358;2023-02-23T04:44:50;11.20;99.90
22850;DHT22;11591;44.792;10.358;2023-02-23T04:47:15;11.20;99.90
22850;DHT22;11591;44.792;10.358;2023-02-23T04:49:42;11.20;99.90
22850;DHT22;11591;44.792;10.358;2023-02-23T04:52:08;11.20;99.90
22850;DHT22;11591;44.792;10.358;2023-02-23T04:54:38;11.20;99.90
22850;DHT22;11591;44.792;10.358;2023-02-23T04:57:04;11.10;99.90
22850;DHT22;11591;44.792;10.358;2023-02-23T04:59:31;11.10;99.90
22850;DHT22;11591;44.792;10.358;2023-02-23T05:01:57;11.10;99.90
22850;DHT22;11591;44.792;10.358;2023-02-23T05:04:23;11.10;99.90
22850;DHT22;11591;44.792;10.358;2023-02-23T05:06:49;11.10;99.90
22850;DHT22;11591;44.792;10.358;2023-02-23T05:09:15;11.10;99.90
22850;DHT22;11591;44.792;10.358;2023-02-23T05:11:41;11.10;99.90
22850;DHT22;11591;44.792;10.358;2023-02-23T05:14:07;11.10;99.90
22850;DHT22;11591;44.792;10.358;2023-02-23T05:16:34;11.10;99.90
22850;DHT22;11591;44.792;10.358;2023-02-23T05:19:00;11.10;99.90
22850;DHT22;11591;44.792;10.358;2023-02-23T05:21:26;11.20;99.90
22850;DHT22;11591;44.792;10.358;2023-02-23T05:23:52;11.20;99.90
22850;DHT22;11591;44.792;10.358;2023-02-23T05:26:17;11.20;99.90
22850;DHT22;11591;44.792;10.358;2023-02-23T05:28:44;11.20;99.90
22850;DHT22;11591;44.792;10.358;2023-02-23T05:31:10;11.30;99.90
22850;DHT22;11591;44.792;10.358;2023-02-23T05:33:37;11.30;99.90
22850;DHT22;11591;44.792;10.358;2023-02-23T05:36:10;11.30;99.90
22850;DHT22;11591;44.792;10.358;2023-02-23T05:38:37;11.30;99.90
22850;DHT22;11591;44.792;10.358;2023-02-23T05:41:07;11.20;99.90
22850;DHT22;11591;44.792;10.358;2023-02-23T05:43:33;11.30;99.90
22850;DHT22;11591;44.792;10.358;2023-02-23T05:45:59;11.30;99.90
22850;DHT22;11591;44.792;10.358;2023-02-23T05:48:27;11.30;99.90
22850;DHT22;11591;44.792;10.358;2023-02-23T05:50:53;11.10;99.90
22850;DHT22;11591;44.792;10.358;2023-02-23T05:53:18;11.10;99.90
22850;DHT22;11591;44.792;10.358;2023-02-23T05:55:45;11.20;99.90
22850;DHT22;11591;44.792;10.358;2023-02-23T05:58:11;11.20;99.90
22850;DHT22;11591;44.792;10.358;2023-02-23T06:00:36;11.20;99.90
22850;DHT22;11591;44.792;10.358;2023-02-23T06:03:02;11.20;99.90
22850;DHT22;11591;44.792;10.358;2023-02-23T06:05:28;11.10;99.90
22850;DHT22;11591;44.792;10.358;2023-02-23T06:07:54;11.10;99.90
22850;DHT22;11591;44.792;10.358;2023-02-23T06:10:21;11.10;99.90
22850;DHT22;11591;44.792;10.358;2023-02-23T06:12:47;11.20;99.90
22850;DHT22;11591;44.792;10.358;2023-02-23T06:15:13;11.20;99.90
22850;DHT22;11591;44.792;10.358;2023-02-23T06:17:57;11.20;99.90
22850;DHT22;11591;44.792;10.358;2023-02-23T06:20:23;11.20;99.90
22850;DHT22;11591;44.792;10.358;2023-02-23T06:22:49;11.20;99.90
22850;DHT22;11591;44.792;10.358;2023-02-23T06:25:33;11.20;99.90
22850;DHT22;11591;44.792;10.358;2023-02-23T06:27:59;11.20;99.90
22850;DHT22;11591;44.792;10.358;2023-02-23T06:30:25;11.20;99.90
22850;DHT22;11591;44.792;10.358;2023-02-23T06:32:51;11.20;99.90
22850;DHT22;11591;44.792;10.358;2023-02-23T06:35:19;11.10;99.90
22850;DHT22;11591;44.792;10.358;2023-02-23T06:37:45;11.10;99.90
22850;DHT22;11591;44.792;10.358;2023-02-23T06:40:11;11.20;99.90
22850;DHT22;11591;44.792;10.358;2023-02-23T06:42:37;11.20;99.90
22850;DHT22;11591;44.792;10.358;2023-02-23T06:45:04;11.20;99.90
22850;DHT22;11591;44.792;10.358;2023-02-23T06:47:30;11.30;99.90
22850;DHT22;11591;44.792;10.358;2023-02-23T06:49:56;11.30;99.90
22850;DHT22;11591;44.792;10.358;2023-02-23T06:52:24;11.30;99.90
22850;DHT22;11591;44.792;10.358;2023-02-23T06:54:50;11.30;99.90
22850;DHT22;11591;44.792;10.358;2023-02-23T06:57:16;11.30;99.90
22850;DHT22;11591;44.792;10.358;2023-02-23T06:59:42;11.30;99.90
22850;DHT22;11591;44.792;10.358;2023-02-23T07:02:12;11.40;99.90
22850;DHT22;11591;44.792;10.358;2023-02-23T07:04:38;11.40;99.90
22850;DHT22;11591;44.792;10.358;2023-02-23T07:07:04;11.30;99.90
22850;DHT22;11591;44.792;10.358;2023-02-23T07:09:30;11.40;99.90
22850;DHT22;11591;44.792;10.358;2023-02-23T07:11:56;11.40;99.90
22850;DHT22;11591;44.792;10.358;2023-02-23T07:14:22;11.40;99.90
22850;DHT22;11591;44.792;10.358;2023-02-23T07:16:47;11.40;99.90
22850;DHT22;11591;44.792;10.358;2023-02-23T07:19:13;11.40;99.90
22850;DHT22;11591;44.792;10.358;2023-02-23T07:21:39;11.40;99.90
22850;DHT22;11591;44.792;10.358;2023-02-23T07:24:05;11.40;99.90
22850;DHT22;11591;44.792;10.358;2023-02-23T07:26:31;11.40;99.90
22850;DHT22;11591;44.792;10.358;2023-02-23T07:29:01;11.50;99.90
22850;DHT22;11591;44.792;10.358;2023-02-23T07:31:27;11.50;99.90
22850;DHT22;11591;44.792;10.358;2023-02-23T07:33:53;11.50;99.90
22850;DHT22;11591;44.792;10.358;2023-02-23T07:36:20;11.50;99.90
22850;DHT22;11591;44.792;10.358;2023-02-23T07:38:46;11.50;99.90
22850;DHT22;11591;44.792;10.358;2023-02-23T07:41:12;11.60;99.90
22850;DHT22;11591;44.792;10.358;2023-02-23T07:43:38;11.60;99.90
22850;DHT22;11591;44.792;10.358;2023-02-23T07:46:04;11.60;99.90
22850;DHT22;11591;44.792;10.358;2023-02-23T07:48:30;11.60;99.90
22850;DHT22;11591;44.792;10.358;2023-02-23T07:50:56;11.70;99.90
22850;DHT22;11591;44.792;10.358;2023-02-23T07:53:22;11.70;99.90
22850;DHT22;11591;44.792;10.358;2023-02-23T07:55:56;11.60;99.90
22850;DHT22;11591;44.792;10.358;2023-02-23T07:58:22;11.70;99.90
22850;DHT22;11591;44.792;10.358;2023-02-23T08:00:48;11.70;99.90
22850;DHT22;11591;44.792;10.358;2023-02-23T08:03:14;11.70;99.90
22850;DHT22;11591;44.792;10.358;2023-02-23T08:05:39;11.80;99.90
22850;DHT22;11591;44.792;10.358;2023-02-23T08:08:05;11.80;99.90
22850;DHT22;11591;44.792;10.358;2023-02-23T08:10:31;11.80;99.90
22850;DHT22;11591;44.792;10.358;2023-02-23T08:12:57;11.80;99.90
22850;DHT22;11591;44.792;10.358;2023-02-23T08:15:24;11.80;99.90
22850;DHT22;11591;44.792;10.358;2023-02-23T08:17:50;11.80;99.90
22850;DHT22;11591;44.792;10.358;2023-02-23T08:20:16;11.80;99.90
22850;DHT22;11591;44.792;10.358;2023-02-23T08:22:42;11.80;99.90
22850;DHT22;11591;44.792;10.358;2023-02-23T08:25:08;11.90;99.90
22850;DHT22;11591;44.792;10.358;2023-02-23T08:27:36;11.90;99.90
22850;DHT22;11591;44.792;10.358;2023-02-23T08:30:02;11.80;99.90
22850;DHT22;11591;44.792;10.358;2023-02-23T08:32:34;11.90;99.90
22850;DHT22;11591;44.792;10.358;2023-02-23T08:35:01;11.90;99.90
22850;DHT22;11591;44.792;10.358;2023-02-23T08:37:30;11.70;99.90
22850;DHT22;11591;44.792;10.358;2023-02-23T08:39:56;11.50;99.90
22850;DHT22;11591;44.792;10.358;2023-02-23T08:42:22;11.40;99.90
22850;DHT22;11591;44.792;10.358;2023-02-23T08:44:48;11.30;99.90
22850;DHT22;11591;44.792;10.358;2023-02-23T08:47:15;11.40;99.90
22850;DHT22;11591;44.792;10.358;2023-02-23T08:49:42;11.40;99.90
22850;DHT22;11591;44.792;10.358;2023-02-23T08:52:08;11.50;99.90
22850;DHT22;11591;44.792;10.358;2023-02-23T08:54:33;11.70;99.90
22850;DHT22;11591;44.792;10.358;2023-02-23T08:56:59;11.70;99.90
22850;DHT22;11591;44.792;10.358;2023-02-23T08:59:25;11.80;99.90
22850;DHT22;11591;44.792;10.358;2023-02-23T09:01:51;11.90;99.90
22850;DHT22;11591;44.792;10.358;2023-02-23T09:04:17;12.00;99.90
22850;DHT22;11591;44.792;10.358;2023-02-23T09:06:44;12.10;99.90
22850;DHT22;11591;44.792;10.358;2023-02-23T09:09:11;12.10;99.90
22850;DHT22;11591;44.792;10.358;2023-02-23T09:11:37;12.20;99.90
22850;DHT22;11591;44.792;10.358;2023-02-23T09:14:02;12.20;99.90
22850;DHT22;11591;44.792;10.358;2023-02-23T09:16:28;12.30;99.90
22850;DHT22;11591;44.792;10.358;2023-02-23T09:18:54;12.40;99.90
22850;DHT22;11591;44.792;10.358;2023-02-23T09:21:21;12.20;99.90
22850;DHT22;11591;44.792;10.358;2023-02-23T09:23:50;12.20;99.90
22850;DHT22;11591;44.792;10.358;2023-02-23T09:26:18;12.30;99.90
22850;DHT22;11591;44.792;10.358;2023-02-23T09:28:44;12.30;99.90
22850;DHT22;11591;44.792;10.358;2023-02-23T09:31:12;12.40;99.90
22850;DHT22;11591;44.792;10.358;2023-02-23T09:33:38;12.20;99.90
22850;DHT22;11591;44.792;10.358;2023-02-23T09:36:15;12.20;99.90
22850;DHT22;11591;44.792;10.358;2023-02-23T09:38:43;12.20;99.90
22850;DHT22;11591;44.792;10.358;2023-02-23T09:47:45;12.30;99.90
22850;DHT22;11591;44.792;10.358;2023-02-23T09:50:24;12.40;99.90
22850;DHT22;11591;44.792;10.358;2023-02-23T09:52:57;12.60;99.90
22850;DHT22;11591;44.792;10.358;2023-02-23T09:55:24;12.70;99.90
22850;DHT22;11591;44.792;10.358;2023-02-23T09:57:51;12.80;99.90
22850;DHT22;11591;44.792;10.358;2023-02-23T10:00:21;12.80;99.90
22850;DHT22;11591;44.792;10.358;2023-02-23T10:03:25;12.90;99.90
22850;DHT22;11591;44.792;10.358;2023-02-23T10:05:59;13.00;99.90
22850;DHT22;11591;44.792;10.358;2023-02-23T10:08:46;13.00;99.90
22850;DHT22;11591;44.792;10.358;2023-02-23T10:16:55;13.20;99.90
22850;DHT22;11591;44.792;10.358;2023-02-23T10:19:34;13.20;99.90
22850;DHT22;11591;44.792;10.358;2023-02-23T10:22:04;13.30;99.90
22850;DHT22;11591;44.792;10.358;2023-02-23T10:24:35;13.30;99.90
22850;DHT22;11591;44.792;10.358;2023-02-23T10:27:09;13.30;99.90
22850;DHT22;11591;44.792;10.358;2023-02-23T10:29:38;13.30;99.90
22850;DHT22;11591;44.792;10.358;2023-02-23T10:34:37;13.30;99.90
22850;DHT22;11591;44.792;10.358;2023-02-23T10:37:06;13.40;99.90
22850;DHT22;11591;44.792;10.358;2023-02-23T10:39:35;13.40;99.90
22850;DHT22;11591;44.792;10.358;2023-02-23T10:42:06;13.30;99.90
22850;DHT22;11591;44.792;10.358;2023-02-23T10:44:36;13.40;99.90
22850;DHT22;11591;44.792;10.358;2023-02-23T10:47:07;13.40;99.90
22850;DHT22;11591;44.792;10.358;2023-02-23T10:49:53;13.40;99.90
22850;DHT22;11591;44.792;10.358;2023-02-23T10:52:40;13.50;99.90
22850;DHT22;11591;44.792;10.358;2023-02-23T10:55:36;13.50;99.90
22850;DHT22;11591;44.792;10.358;2023-02-23T10:58:16;13.50;99.90
22850;DHT22;11591;44.792;10.358;2023-02-23T11:00:58;13.60;99.90
22850;DHT22;11591;44.792;10.358;2023-02-23T11:03:44;13.60;99.90
22850;DHT22;11591;44.792;10.358;2023-02-23T11:06:38;13.70;99.90
22850;DHT22;11591;44.792;10.358;2023-02-23T11:12:03;13.80;99.90
22850;DHT22;11591;44.792;10.358;2023-02-23T11:14:38;13.90;99.90
22850;DHT22;11591;44.792;10.358;2023-02-23T11:17:03;13.90;99.90
22850;DHT22;11591;44.792;10.358;2023-02-23T11:19:33;14.00;99.90
22850;DHT22;11591;44.792;10.358;2023-02-23T11:22:05;14.00;99.90
22850;DHT22;11591;44.792;10.358;2023-02-23T11:24:40;14.10;99.90
22850;DHT22;11591;44.792;10.358;2023-02-23T11:27:19;14.10;99.90
22850;DHT22;11591;44.792;10.358;2023-02-23T11:29:48;14.10;99.90
22850;DHT22;11591;44.792;10.358;2023-02-23T11:32:27;14.20;99.90
22850;DHT22;11591;44.792;10.358;2023-02-23T11:35:25;14.20;99.90
22850;DHT22;11591;44.792;10.358;2023-02-23T11:37:52;14.20;99.90
22850;DHT22;11591;44.792;10.358;2023-02-23T11:40:25;14.20;99.90
22850;DHT22;11591;44.792;10.358;2023-02-23T11:42:56;14.30;99.90
22850;DHT22;11591;44.792;10.358;2023-02-23T11:45:29;14.30;99.90
22850;DHT22;11591;44.792;10.358;2023-02-23T11:47:58;14.40;99.90
22850;DHT22;11591;44.792;10.358;2023-02-23T11:50:29;14.40;99.90
22850;DHT22;11591;44.792;10.358;2023-02-23T11:53:00;14.40;99.90
22850;DHT22;11591;44.792;10.358;2023-02-23T11:55:29;14.50;99.90
22850;DHT22;11591;44.792;10.358;2023-02-23T12:00:41;14.50;99.90
22850;DHT22;11591;44.792;10.358;2023-02-23T12:03:19;14.40;99.90
22850;DHT22;11591;44.792;10.358;2023-02-23T12:05:49;14.40;99.90
22850;DHT22;11591;44.792;10.358;2023-02-23T12:08:42;14.40;99.90
22850;DHT22;11591;44.792;10.358;2023-02-23T12:11:17;14.40;99.90
22850;DHT22;11591;44.792;10.358;2023-02-23T12:13:50;14.40;99.90
22850;DHT22;11591;44.792;10.358;2023-02-23T12:16:25;14.40;99.90
22850;DHT22;11591;44.792;10.358;2023-02-23T12:33:01;14.30;99.90
22850;DHT22;11591;44.792;10.358;2023-02-23T12:35:38;14.20;99.90
22850;DHT22;11591;44.792;10.358;2023-02-23T12:41:23;14.10;99.90
22850;DHT22;11591;44.792;10.358;2023-02-23T12:43:58;14.10;99.90
22850;DHT22;11591;44.792;10.358;2023-02-23T12:46:29;14.10;99.90
22850;DHT22;11591;44.792;10.358;2023-02-23T12:49:18;14.10;99.90
22850;DHT22;11591;44.792;10.358;2023-02-23T12:51:52;14.00;99.90
22850;DHT22;11591;44.792;10.358;2023-02-23T12:54:19;14.00;99.90
22850;DHT22;11591;44.792;10.358;2023-02-23T13:02:24;14.00;99.90
22850;DHT22;11591;44.792;10.358;2023-02-23T13:05:05;14.00;99.90
22850;DHT22;11591;44.792;10.358;2023-02-23T13:10:52;14.00;99.90
22850;DHT22;11591;44.792;10.358;2023-02-23T13:13:24;13.90;99.90
22850;DHT22;11591;44.792;10.358;2023-02-23T13:15:59;14.00;99.90
22850;DHT22;11591;44.792;10.358;2023-02-23T13:21:18;14.00;99.90
22850;DHT22;11591;44.792;10.358;2023-02-23T13:24:09;14.00;99.90
22850;DHT22;11591;44.792;10.358;2023-02-23T13:26:48;14.00;99.90
22850;DHT22;11591;44.792;10.358;2023-02-23T13:31:47;14.10;99.90
22850;DHT22;11591;44.792;10.358;2023-02-23T13:34:34;14.10;99.90
22850;DHT22;11591;44.792;10.358;2023-02-23T13:37:06;14.10;99.90
22850;DHT22;11591;44.792;10.358;2023-02-23T13:42:58;14.10;99.90
22850;DHT22;11591;44.792;10.358;2023-02-23T13:46:10;14.10;99.90
22850;DHT22;11591;44.792;10.358;2023-02-23T13:51:36;14.10;99.90
22850;DHT22;11591;44.792;10.358;2023-02-23T13:57:04;14.10;99.90
22850;DHT22;11591;44.792;10.358;2023-02-23T13:59:40;14.00;99.90
22850;DHT22;11591;44.792;10.358;2023-02-23T14:04:48;14.00;99.90
22850;DHT22;11591;44.792;10.358;2023-02-23T14:07:28;14.00;99.90
22850;DHT22;11591;44.792;10.358;2023-02-23T14:10:04;14.00;99.90
22850;DHT22;11591;44.792;10.358;2023-02-23T14:12:38;14.10;99.90
22850;DHT22;11591;44.792;10.358;2023-02-23T14:18:04;14.00;99.90
22850;DHT22;11591;44.792;10.358;2023-02-23T14:23:32;13.90;99.90
22850;DHT22;11591;44.792;10.358;2023-02-23T14:26:09;13.90;99.90
22850;DHT22;11591;44.792;10.358;2023-02-23T14:28:41;13.90;99.90
22850;DHT22;11591;44.792;10.358;2023-02-23T14:39:00;14.00;99.90
22850;DHT22;11591;44.792;10.358;2023-02-23T14:41:44;14.00;99.90
22850;DHT22;11591;44.792;10.358;2023-02-23T14:44:27;14.00;99.90
22850;DHT22;11591;44.792;10.358;2023-02-23T14:49:24;14.10;99.90
22850;DHT22;11591;44.792;10.358;2023-02-23T14:51:59;14.10;99.90
22850;DHT22;11591;44.792;10.358;2023-02-23T14:54:34;14.20;99.90
22850;DHT22;11591;44.792;10.358;2023-02-23T14:57:22;14.20;99.90
22850;DHT22;11591;44.792;10.358;2023-02-23T14:59:59;14.20;99.90
22850;DHT22;11591;44.792;10.358;2023-02-23T15:02:28;14.30;99.90
22850;DHT22;11591;44.792;10.358;2023-02-23T15:04:56;14.30;99.90
22850;DHT22;11591;44.792;10.358;2023-02-23T15:07:37;14.30;99.90
22850;DHT22;11591;44.792;10.358;2023-02-23T15:10:09;14.30;99.90
22850;DHT22;11591;44.792;10.358;2023-02-23T15:12:37;14.30;99.90
22850;DHT22;11591;44.792;10.358;2023-02-23T15:15:10;14.30;99.90
22850;DHT22;11591;44.792;10.358;2023-02-23T15:17:41;14.20;99.90
22850;DHT22;11591;44.792;10.358;2023-02-23T15:20:14;14.10;99.90
22850;DHT22;11591;44.792;10.358;2023-02-23T15:22:40;14.10;99.90
22850;DHT22;11591;44.792;10.358;2023-02-23T15:25:18;14.10;99.90
22850;DHT22;11591;44.792;10.358;2023-02-23T15:27:45;14.10;99.90
22850;DHT22;11591;44.792;10.358;2023-02-23T15:30:30;14.10;99.90
22850;DHT22;11591;44.792;10.358;2023-02-23T15:33:10;14.10;99.90
22850;DHT22;11591;44.792;10.358;2023-02-23T15:35:45;14.10;99.90
22850;DHT22;11591;44.792;10.358;2023-02-23T15:38:18;14.00;99.90
22850;DHT22;11591;44.792;10.358;2023-02-23T15:40:54;14.00;99.90
22850;DHT22;11591;44.792;10.358;2023-02-23T15:43:24;14.00;99.90
22850;DHT22;11591;44.792;10.358;2023-02-23T15:45:55;14.00;99.90
22850;DHT22;11591;44.792;10.358;2023-02-23T15:48:25;13.90;99.90
22850;DHT22;11591;44.792;10.358;2023-02-23T15:50:54;13.90;99.90
22850;DHT22;11591;44.792;10.358;2023-02-23T15:55:54;13.90;99.90
22850;DHT22;11591;44.792;10.358;2023-02-23T15:58:24;13.80;99.90
22850;DHT22;11591;44.792;10.358;2023-02-23T16:00:55;13.80;99.90
22850;DHT22;11591;44.792;10.358;2023-02-23T16:03:36;13.80;99.90
22850;DHT22;11591;44.792;10.358;2023-02-23T16:06:15;13.80;99.90
22850;DHT22;11591;44.792;10.358;2023-02-23T16:09:12;13.80;99.90
22850;DHT22;11591;44.792;10.358;2023-02-23T16:11:51;13.70;99.90
22850;DHT22;11591;44.792;10.358;2023-02-23T16:14:19;13.70;99.90
22850;DHT22;11591;44.792;10.358;2023-02-23T16:16:47;13.70;99.90
22850;DHT22;11591;44.792;10.358;2023-02-23T16:19:18;13.70;99.90
22850;DHT22;11591;44.792;10.358;2023-02-23T16:21:54;13.70;99.90
22850;DHT22;11591;44.792;10.358;2023-02-23T16:24:24;13.60;99.90
22850;DHT22;11591;44.792;10.358;2023-02-23T16:26:56;13.60;99.90
22850;DHT22;11591;44.792;10.358;2023-02-23T16:29:32;13.60;99.90
22850;DHT22;11591;44.792;10.358;2023-02-23T16:32:01;13.60;99.90
22850;DHT22;11591;44.792;10.358;2023-02-23T16:34:30;13.60;99.90
22850;DHT22;11591;44.792;10.358;2023-02-23T16:37:02;13.50;99.90
22850;DHT22;11591;44.792;10.358;2023-02-23T16:39:30;13.50;99.90
22850;DHT22;11591;44.792;10.358;2023-02-23T16:41:57;13.50;99.90
22850;DHT22;11591;44.792;10.358;2023-02-23T16:44:26;13.40;99.90
22850;DHT22;11591;44.792;10.358;2023-02-23T16:49:28;13.40;99.90
22850;DHT22;11591;44.792;10.358;2023-02-23T16:51:57;13.40;99.90
22850;DHT22;11591;44.792;10.358;2023-02-23T16:54:24;13.40;99.90
22850;DHT22;11591;44.792;10.358;2023-02-23T16:56:50;13.40;99.90
22850;DHT22;11591;44.792;10.358;2023-02-23T16:59:20;13.40;99.90
22850;DHT22;11591;44.792;10.358;2023-02-23T17:01:47;13.40;99.90
22850;DHT22;11591;44.792;10.358;2023-02-23T17:04:16;13.40;99.90
22850;DHT22;11591;44.792;10.358;2023-02-23T17:06:43;13.30;99.90
22850;DHT22;11591;44.792;10.358;2023-02-23T17:09:10;13.30;99.90
22850;DHT22;11591;44.792;10.358;2023-02-23T17:11:38;13.30;99.90
22850;DHT22;11591;44.792;10.358;2023-02-23T17:14:04;13.30;99.90
22850;DHT22;11591;44.792;10.358;2023-02-23T17:16:30;13.30;99.90
22850;DHT22;11591;44.792;10.358;2023-02-23T17:18:56;13.30;99.90
22850;DHT22;11591;44.792;10.358;2023-02-23T17:21:24;13.30;99.90
22850;DHT22;11591;44.792;10.358;2023-02-23T17:23:51;13.20;99.90
22850;DHT22;11591;44.792;10.358;2023-02-23T17:26:24;13.20;99.90
22850;DHT22;11591;44.792;10.358;2023-02-23T17:28:50;13.20;99.90
22850;DHT22;11591;44.792;10.358;2023-02-23T17:31:18;13.20;99.90
22850;DHT22;11591;44.792;10.358;2023-02-23T17:33:45;13.20;99.90
22850;DHT22;11591;44.792;10.358;2023-02-23T17:36:14;13.20;99.90
22850;DHT22;11591;44.792;10.358;2023-02-23T17:38:40;13.10;99.90
22850;DHT22;11591;44.792;10.358;2023-02-23T17:41:16;13.10;99.90
22850;DHT22;11591;44.792;10.358;2023-02-23T17:43:43;13.10;99.90